createdAt,value
2022-10-23T00:01:00.797Z,65.12
2022-10-23T00:03:27.546Z,65.55
2022-10-23T00:05:54.171Z,65.56
2022-10-23T00:08:24.578Z,65.92
2022-10-23T00:10:51.148Z,66.10
2022-10-23T00:13:17.661Z,66.62
2022-10-23T00:15:44.538Z,66.01
2022-10-23T00:18:12.766Z,66.42
2022-10-23T00:20:39.719Z,66.30
2022-10-23T00:23:06.252Z,66.67
2022-10-23T00:25:32.791Z,66.49
2022-10-23T00:27:59.587Z,66.14
2022-10-23T00:30:26.368Z,66.53
2022-10-23T00:32:52.953Z,66.24
2022-10-23T00:35:20.961Z,66.41
2022-10-23T00:37:47.736Z,66.46
2022-10-23T00:40:14.397Z,66.69
2022-10-23T00:42:42.117Z,66.46
2022-10-23T00:45:13.870Z,66.90
2022-10-23T00:47:40.713Z,66.20
2022-10-23T00:50:08.243Z,66.68
2022-10-23T00:52:42.655Z,66.94
2022-10-23T00:55:10.921Z,67.16
2022-10-23T00:57:41.448Z,66.67
2022-10-23T01:00:09.496Z,66.84
2022-10-23T01:02:36.165Z,67.10
2022-10-23T01:05:02.916Z,66.75
2022-10-23T01:07:35.606Z,67.25
2022-10-23T01:10:11.425Z,66.75
2022-10-23T01:12:46.755Z,66.99
2022-10-23T01:15:18.428Z,66.82
2022-10-23T01:17:51.947Z,67.02
2022-10-23T01:20:35.621Z,67.01
2022-10-23T01:23:35.995Z,67.32
2022-10-23T01:26:38.306Z,67.41
2022-10-23T01:29:14.063Z,67.19
2022-10-23T01:31:46.580Z,67.12
2022-10-23T01:34:18.078Z,67.35
2022-10-23T01:36:48.928Z,67.09
2022-10-23T01:39:22.258Z,67.44
2022-10-23T01:41:52.323Z,67.11
2022-10-23T01:44:26.202Z,66.82
2022-10-23T01:46:55.543Z,66.89
2022-10-23T01:49:23.540Z,66.99
2022-10-23T01:51:54.073Z,67.12
2022-10-23T01:54:25.052Z,67.04
2022-10-23T01:56:52.970Z,67.18
2022-10-23T01:59:24.076Z,67.09
2022-10-23T02:01:54.105Z,67.07
2022-10-23T02:04:26.540Z,67.37
2022-10-23T02:06:53.574Z,67.07
2022-10-23T02:09:20.205Z,67.01
2022-10-23T02:11:55.424Z,67.39
2022-10-23T02:14:33.864Z,67.24
2022-10-23T02:17:10.602Z,67.33
2022-10-23T02:19:45.768Z,67.17
2022-10-23T02:22:16.940Z,66.81
2022-10-23T02:24:49.283Z,67.25
2022-10-23T02:27:20.756Z,67.09
2022-10-23T02:29:52.513Z,67.02
2022-10-23T02:32:22.274Z,66.77
2022-10-23T02:34:48.932Z,66.82
2022-10-23T02:37:15.747Z,67.09
2022-10-23T02:39:44.235Z,67.17
2022-10-23T02:42:18.731Z,67.57
2022-10-23T02:44:55.933Z,67.33
2022-10-23T02:47:34.234Z,67.06
2022-10-23T02:50:07.325Z,66.67
2022-10-23T02:52:41.782Z,67.09
2022-10-23T02:55:18.367Z,66.69
2022-10-23T02:57:49.832Z,67.22
2022-10-23T03:00:20.681Z,67.03
2022-10-23T03:02:53.701Z,66.88
2022-10-23T03:05:23.388Z,67.13
2022-10-23T03:07:50.505Z,67.15
2022-10-23T03:10:17.087Z,67.09
2022-10-23T03:12:44.099Z,67.05
2022-10-23T03:15:11.628Z,66.57
2022-10-23T03:17:39.772Z,66.49
2022-10-23T03:20:07.700Z,66.41
2022-10-23T03:22:34.636Z,66.83
2022-10-23T03:25:01.636Z,66.64
2022-10-23T03:30:00.147Z,66.58
2022-10-23T03:32:27.341Z,66.43
2022-10-23T03:34:55.417Z,66.39
2022-10-23T03:37:22.048Z,66.37
2022-10-23T03:39:48.817Z,66.75
2022-10-23T03:42:18.376Z,66.38
2022-10-23T03:44:44.995Z,66.08
2022-10-23T03:47:11.697Z,65.87
2022-10-23T03:49:38.388Z,65.60
2022-10-23T03:52:07.623Z,65.61
2022-10-23T03:54:34.860Z,65.39
2022-10-23T03:57:02.388Z,65.74
2022-10-23T03:59:29.486Z,65.17
2022-10-23T04:01:56.104Z,65.15
2022-10-23T04:04:22.800Z,65.36
2022-10-23T04:06:49.885Z,65.44
2022-10-23T04:09:18.072Z,65.40
2022-10-23T04:11:46.405Z,65.87
2022-10-23T04:14:14.744Z,65.38
2022-10-23T04:16:42.165Z,65.11
2022-10-23T04:19:08.687Z,64.94
2022-10-23T04:21:35.553Z,65.14
2022-10-23T04:24:02.100Z,65.15
2022-10-23T04:26:30.050Z,64.95
2022-10-23T04:28:56.726Z,65.33
2022-10-23T04:31:24.332Z,65.07
2022-10-23T04:33:51.022Z,65.28
2022-10-23T04:36:17.821Z,65.66
2022-10-23T04:38:44.820Z,65.37
2022-10-23T04:41:11.480Z,65.15
2022-10-23T04:43:39.562Z,65.31
2022-10-23T04:46:06.417Z,65.24
2022-10-23T04:48:33.189Z,65.47
2022-10-23T04:51:02.330Z,65.57
2022-10-23T04:53:29.163Z,65.52
2022-10-23T04:55:57.228Z,65.65
2022-10-23T04:58:25.488Z,65.31
2022-10-23T05:00:54.175Z,65.97
2022-10-23T05:03:24.506Z,65.92
2022-10-23T05:05:53.712Z,65.28
2022-10-23T05:08:20.750Z,65.98
2022-10-23T05:10:48.027Z,65.28
2022-10-23T05:13:14.802Z,65.75
2022-10-23T05:18:14.956Z,64.85
2022-10-23T05:20:43.940Z,65.51
2022-10-23T05:23:13.572Z,65.24
2022-10-23T05:25:40.605Z,65.51
2022-10-23T05:28:07.550Z,65.17
2022-10-23T05:30:35.003Z,65.39
2022-10-23T05:33:05.082Z,64.96
2022-10-23T05:35:33.810Z,65.00
2022-10-23T05:38:02.061Z,65.19
2022-10-23T05:40:28.933Z,65.19
2022-10-23T05:42:55.823Z,65.46
2022-10-23T05:45:22.688Z,65.32
2022-10-23T05:47:49.547Z,65.49
2022-10-23T05:50:16.961Z,65.49
2022-10-23T05:52:47.644Z,65.23
2022-10-23T05:55:15.261Z,65.19
2022-10-23T05:57:43.441Z,64.93
2022-10-23T06:00:11.783Z,64.73
2022-10-23T06:02:40.776Z,64.66
2022-10-23T06:05:08.435Z,64.90
2022-10-23T06:07:35.978Z,64.81
2022-10-23T06:10:04.729Z,64.90
2022-10-23T06:12:31.817Z,64.84
2022-10-23T06:14:59.500Z,65.14
2022-10-23T06:17:27.123Z,64.88
2022-10-23T06:19:54.057Z,65.04
2022-10-23T06:24:52.077Z,64.03
2022-10-23T06:27:20.104Z,64.02
2022-10-23T06:29:46.719Z,63.84
2022-10-23T06:32:13.428Z,63.73
2022-10-23T06:34:39.991Z,63.00
2022-10-23T06:37:06.686Z,63.47
2022-10-23T06:39:33.214Z,62.90
2022-10-23T06:41:59.776Z,63.01
2022-10-23T06:44:27.816Z,62.54
2022-10-23T06:46:54.381Z,61.92
2022-10-23T06:49:20.911Z,61.77
2022-10-23T06:51:47.432Z,61.97
2022-10-23T06:54:14.037Z,61.52
2022-10-23T06:56:40.677Z,61.04
2022-10-23T06:59:07.232Z,61.30
2022-10-23T07:01:35.803Z,60.72
2022-10-23T07:04:02.570Z,60.25
2022-10-23T07:06:31.454Z,60.39
2022-10-23T07:09:01.753Z,59.90
2022-10-23T07:11:28.434Z,59.81
2022-10-23T07:13:55.021Z,59.54
2022-10-23T07:16:23.144Z,59.26
2022-10-23T07:18:55.894Z,59.17
2022-10-23T07:21:23.994Z,59.15
2022-10-23T07:23:50.721Z,59.24
2022-10-23T07:26:17.862Z,59.13
2022-10-23T07:28:46.057Z,59.19
2022-10-23T07:31:13.026Z,58.88
2022-10-23T07:33:40.775Z,58.40
2022-10-23T07:36:10.228Z,58.04
2022-10-23T07:38:37.079Z,57.51
2022-10-23T07:41:05.828Z,57.38
2022-10-23T07:43:34.683Z,57.04
2022-10-23T07:46:02.813Z,56.85
2022-10-23T07:48:36.362Z,56.83
2022-10-23T07:51:14.791Z,56.27
2022-10-23T07:53:42.542Z,55.55
2022-10-23T07:56:17.638Z,54.69
2022-10-23T07:58:46.006Z,54.74
2022-10-23T08:01:27.783Z,53.27
2022-10-23T08:03:57.698Z,53.09
2022-10-23T08:06:27.490Z,52.38
2022-10-23T08:08:54.127Z,52.22
2022-10-23T08:11:33.051Z,51.32
2022-10-23T08:13:59.655Z,50.29
2022-10-23T08:16:26.344Z,49.66
2022-10-23T08:18:53.063Z,49.15
2022-10-23T08:21:19.782Z,48.24
2022-10-23T08:23:47.839Z,47.70
2022-10-23T08:26:14.886Z,47.12
2022-10-23T08:28:41.598Z,46.87
2022-10-23T08:31:09.628Z,46.97
2022-10-23T08:33:37.737Z,46.11
2022-10-23T08:36:05.177Z,46.14
2022-10-23T08:38:36.976Z,46.19
2022-10-23T08:41:06.795Z,46.28
2022-10-23T08:43:39.573Z,46.17
2022-10-23T08:46:15.789Z,46.02
2022-10-23T08:48:47.666Z,45.49
2022-10-23T08:51:19.079Z,46.28
2022-10-23T08:53:52.356Z,46.21
2022-10-23T08:56:25.645Z,46.05
2022-10-23T08:58:56.913Z,46.03
2022-10-23T09:01:36.472Z,45.93
2022-10-23T09:04:04.694Z,45.46
2022-10-23T09:06:37.607Z,46.19
2022-10-23T09:09:21.319Z,45.84
2022-10-23T09:11:59.874Z,46.56
2022-10-23T09:14:42.364Z,46.05
2022-10-23T09:17:16.874Z,45.58
2022-10-23T09:19:45.252Z,46.34
2022-10-23T09:22:13.367Z,45.62
2022-10-23T09:24:42.994Z,46.09
2022-10-23T09:27:16.448Z,45.47
2022-10-23T09:29:49.559Z,46.15
2022-10-23T09:32:16.409Z,45.76
2022-10-23T09:34:52.149Z,45.99
2022-10-23T09:37:23.371Z,46.04
2022-10-23T09:40:00.665Z,45.92
2022-10-23T09:42:28.837Z,46.74
2022-10-23T09:44:55.435Z,46.09
2022-10-23T09:47:24.304Z,46.14
2022-10-23T09:49:54.180Z,46.01
2022-10-23T09:52:25.416Z,45.72
2022-10-23T09:54:56.454Z,45.12
2022-10-23T09:57:28.620Z,45.72
2022-10-23T10:00:00.503Z,45.69
2022-10-23T10:02:30.236Z,44.79
2022-10-23T10:04:57.531Z,44.71
2022-10-23T10:07:26.682Z,45.06
2022-10-23T10:09:54.756Z,45.43
2022-10-23T10:12:49.878Z,44.96
2022-10-23T10:15:26.005Z,45.24
2022-10-23T10:18:02.990Z,45.07
2022-10-23T10:21:06.697Z,45.15
2022-10-23T10:23:44.837Z,45.37
2022-10-23T10:26:26.781Z,45.25
2022-10-23T10:29:10.557Z,46.37
2022-10-23T10:31:54.535Z,46.18
2022-10-23T10:34:29.404Z,45.84
2022-10-23T10:36:58.328Z,45.64
2022-10-23T10:39:35.475Z,45.43
2022-10-23T10:42:28.964Z,45.48
2022-10-23T10:45:18.116Z,44.97
2022-10-23T10:47:59.160Z,44.58
2022-10-23T10:50:31.259Z,44.33
2022-10-23T10:53:12.156Z,44.07
2022-10-23T10:55:42.053Z,43.78
2022-10-23T10:58:17.476Z,44.41
2022-10-23T11:00:49.843Z,43.62
2022-10-23T11:03:30.335Z,42.65
2022-10-23T11:08:44.628Z,42.84
2022-10-23T11:11:27.818Z,43.27
2022-10-23T11:13:54.568Z,43.55
2022-10-23T11:16:27.549Z,43.39
2022-10-23T11:19:11.239Z,43.12
2022-10-23T11:25:07.455Z,42.95
2022-10-23T11:28:04.416Z,43.04
2022-10-23T11:30:43.882Z,43.52
2022-10-23T11:33:45.873Z,45.17
2022-10-23T11:36:17.677Z,45.14
2022-10-23T11:38:50.174Z,45.15
2022-10-23T11:41:23.696Z,45.27
2022-10-23T11:43:54.954Z,45.63
2022-10-23T11:46:35.383Z,45.30
2022-10-23T11:49:07.742Z,46.15
2022-10-23T11:51:38.473Z,46.34
2022-10-23T11:54:06.649Z,46.76
2022-10-23T11:56:33.600Z,47.53
2022-10-23T11:59:21.504Z,46.25
2022-10-23T12:01:51.510Z,47.32
2022-10-23T12:04:24.270Z,47.22
2022-10-23T12:06:54.839Z,46.36
2022-10-23T12:09:29.628Z,45.99
2022-10-23T12:12:16.083Z,45.91
2022-10-23T12:14:46.160Z,45.55
2022-10-23T12:17:29.669Z,44.99
2022-10-23T12:20:03.737Z,45.38
2022-10-23T12:22:42.203Z,45.30
2022-10-23T12:25:13.400Z,45.64
2022-10-23T12:27:49.946Z,45.20
2022-10-23T12:30:21.761Z,44.76
2022-10-23T12:33:02.241Z,45.84
2022-10-23T12:35:54.759Z,45.70
2022-10-23T12:38:25.136Z,46.25
2022-10-23T12:40:53.197Z,46.41
2022-10-23T12:43:30.254Z,46.32
2022-10-23T12:46:03.006Z,45.82
2022-10-23T12:48:29.731Z,46.61
2022-10-23T12:50:56.601Z,45.94
2022-10-23T12:53:24.605Z,46.23
2022-10-23T12:55:56.272Z,45.30
2022-10-23T12:58:25.540Z,45.95
2022-10-23T13:00:54.519Z,45.63
2022-10-23T13:03:23.243Z,45.76
2022-10-23T13:05:51.540Z,46.28
2022-10-23T13:08:19.114Z,46.90
2022-10-23T13:10:49.232Z,46.60
2022-10-23T13:13:22.159Z,46.28
2022-10-23T13:15:48.844Z,46.26
2022-10-23T13:18:17.218Z,47.15
2022-10-23T13:20:56.778Z,46.94
2022-10-23T13:23:28.716Z,47.00
2022-10-23T13:25:58.365Z,46.99
2022-10-23T13:28:26.795Z,47.65
2022-10-23T13:31:23.748Z,46.58
2022-10-23T13:33:51.792Z,47.63
2022-10-23T13:36:23.002Z,46.61
2022-10-23T13:39:12.209Z,46.47
2022-10-23T13:41:42.116Z,47.28
2022-10-23T13:44:13.243Z,47.34
2022-10-23T13:46:40.001Z,47.55
2022-10-23T13:49:06.887Z,47.88
2022-10-23T13:51:40.176Z,48.06
2022-10-23T13:54:14.409Z,48.25
2022-10-23T13:56:43.982Z,48.02
2022-10-23T13:59:11.006Z,48.25
2022-10-23T14:01:37.832Z,47.91
2022-10-23T14:04:06.050Z,48.70
2022-10-23T14:06:33.444Z,48.09
2022-10-23T14:09:00.047Z,48.49
2022-10-23T14:11:26.644Z,48.67
2022-10-23T14:13:55.678Z,49.26
2022-10-23T14:16:22.254Z,49.06
2022-10-23T14:18:49.276Z,48.66
2022-10-23T14:21:17.627Z,48.11
2022-10-23T14:23:44.468Z,48.19
2022-10-23T14:26:12.837Z,48.65
2022-10-23T14:28:39.634Z,49.00
2022-10-23T14:31:10.038Z,48.78
2022-10-23T14:33:36.662Z,49.48
2022-10-23T14:36:03.684Z,50.17
2022-10-23T14:38:30.292Z,49.37
2022-10-23T14:40:58.077Z,50.07
2022-10-23T14:43:25.626Z,50.13
2022-10-23T14:45:52.317Z,49.96
2022-10-23T14:48:20.813Z,50.69
2022-10-23T14:50:49.201Z,50.44
2022-10-23T14:53:16.150Z,50.37
2022-10-23T14:55:42.711Z,50.70
2022-10-23T14:58:09.594Z,50.47
2022-10-23T15:00:36.338Z,50.92
2022-10-23T15:03:03.073Z,50.95
2022-10-23T15:05:31.318Z,51.12
2022-10-23T15:07:58.205Z,52.51
2022-10-23T15:10:24.758Z,54.27
2022-10-23T15:12:51.272Z,54.63
2022-10-23T15:15:18.071Z,55.16
2022-10-23T15:17:44.803Z,55.68
2022-10-23T15:20:11.675Z,55.85
2022-10-23T15:22:39.884Z,56.04
2022-10-23T15:25:07.802Z,57.01
2022-10-23T15:27:35.194Z,56.91
2022-10-23T15:30:04.636Z,57.31
2022-10-23T15:32:31.311Z,57.53
2022-10-23T15:34:57.993Z,57.83
2022-10-23T15:37:24.481Z,58.46
2022-10-23T15:39:53.095Z,58.09
2022-10-23T15:42:19.712Z,59.06
2022-10-23T15:44:46.778Z,59.21
2022-10-23T15:47:13.321Z,59.91
2022-10-23T15:49:39.980Z,59.88
2022-10-23T15:52:06.943Z,60.29
2022-10-23T15:54:33.533Z,60.27
2022-10-23T15:57:02.620Z,59.70
2022-10-23T15:59:31.154Z,60.87
2022-10-23T16:01:58.181Z,60.18
2022-10-23T16:04:25.140Z,60.15
2022-10-23T16:06:52.551Z,60.66
2022-10-23T16:09:19.104Z,60.72
2022-10-23T16:11:47.597Z,60.45
2022-10-23T16:14:16.857Z,61.63
2022-10-23T16:16:46.214Z,61.68
2022-10-23T16:19:13.516Z,62.49
2022-10-23T16:21:41.384Z,62.26
2022-10-23T16:24:11.496Z,62.29
2022-10-23T16:26:38.899Z,62.23
2022-10-23T16:29:08.539Z,62.49
2022-10-23T16:31:56.187Z,62.55
2022-10-23T16:34:23.330Z,62.61
2022-10-23T16:36:49.954Z,62.99
2022-10-23T16:39:18.322Z,62.80
2022-10-23T16:41:45.439Z,63.10
2022-10-23T16:44:12.106Z,63.41
2022-10-23T16:46:38.609Z,64.29
2022-10-23T16:49:07.348Z,63.71
2022-10-23T16:51:34.185Z,63.78
2022-10-23T16:54:01.249Z,64.59
2022-10-23T16:56:28.952Z,64.54
2022-10-23T16:58:56.393Z,64.32
2022-10-23T17:01:26.079Z,65.00
2022-10-23T17:03:54.605Z,65.08
2022-10-23T17:06:25.399Z,65.38
2022-10-23T17:08:52.741Z,66.21
2022-10-23T17:11:21.505Z,66.32
2022-10-23T17:13:52.365Z,66.77
2022-10-23T17:16:25.334Z,67.40
2022-10-23T17:18:52.835Z,67.74
2022-10-23T17:21:22.403Z,67.32
2022-10-23T17:23:50.339Z,66.99
2022-10-23T17:26:18.939Z,67.88
2022-10-23T17:28:51.914Z,67.64
2022-10-23T17:31:21.189Z,67.45
2022-10-23T17:33:49.792Z,67.35
2022-10-23T17:36:17.297Z,67.39
2022-10-23T17:38:47.633Z,67.16
2022-10-23T17:41:17.380Z,66.48
2022-10-23T17:43:44.584Z,66.67
2022-10-23T17:46:13.304Z,67.20
2022-10-23T17:48:41.372Z,67.10
2022-10-23T17:51:10.551Z,68.32
2022-10-23T17:53:39.848Z,68.62
2022-10-23T17:56:10.279Z,68.69
2022-10-23T17:58:37.666Z,68.78
2022-10-23T18:01:05.144Z,69.45
2022-10-23T18:03:32.234Z,69.23
2022-10-23T18:05:58.771Z,68.67
2022-10-23T18:08:25.600Z,68.74
2022-10-23T18:10:53.470Z,68.98
2022-10-23T18:13:21.378Z,68.64
2022-10-23T18:15:49.257Z,68.48
2022-10-23T18:18:16.106Z,68.69
2022-10-23T18:20:42.847Z,68.56
2022-10-23T18:23:09.620Z,68.53
2022-10-23T18:25:41.932Z,68.39
2022-10-23T18:28:08.572Z,68.35
2022-10-23T18:33:04.866Z,68.93
2022-10-23T18:35:34.144Z,68.27
2022-10-23T18:38:00.789Z,68.83
2022-10-23T18:40:28.161Z,68.56
2022-10-23T18:42:55.356Z,68.12
2022-10-23T18:45:22.578Z,67.34
2022-10-23T18:47:51.478Z,67.99
2022-10-23T18:50:18.648Z,67.63
2022-10-23T18:52:46.124Z,67.65
2022-10-23T18:55:13.695Z,67.62
2022-10-23T18:57:40.462Z,67.55
2022-10-23T19:00:09.901Z,67.89
2022-10-23T19:02:37.704Z,67.16
2022-10-23T19:05:07.784Z,67.77
2022-10-23T19:07:34.782Z,67.63
2022-10-23T19:10:03.070Z,66.92
2022-10-23T19:12:31.803Z,66.94
2022-10-23T19:14:58.485Z,66.66
2022-10-23T19:17:29.880Z,66.41
2022-10-23T19:20:01.301Z,66.85
2022-10-23T19:22:31.466Z,67.91
2022-10-23T19:25:05.717Z,66.50
2022-10-23T19:27:32.347Z,66.52
2022-10-23T19:29:59.797Z,66.03
2022-10-23T19:32:26.495Z,66.09
2022-10-23T19:34:53.846Z,66.27
2022-10-23T19:37:22.019Z,67.01
2022-10-23T19:39:50.117Z,68.27
2022-10-23T19:42:26.839Z,67.00
2022-10-23T19:44:53.414Z,67.28
2022-10-23T19:47:19.980Z,67.76
2022-10-23T19:49:47.176Z,67.41
2022-10-23T19:52:13.911Z,67.31
2022-10-23T19:54:40.914Z,67.69
2022-10-23T19:57:09.117Z,68.63
2022-10-23T19:59:36.018Z,68.33
2022-10-23T20:02:03.149Z,67.70
2022-10-23T20:04:30.279Z,68.00
2022-10-23T20:06:57.365Z,68.20
2022-10-23T20:09:24.263Z,68.72
2022-10-23T20:11:50.865Z,68.55
2022-10-23T20:14:19.316Z,68.47
2022-10-23T20:16:48.061Z,68.89
2022-10-23T20:21:50.506Z,68.98
2022-10-23T20:24:20.632Z,68.44
2022-10-23T20:26:49.286Z,68.52
2022-10-23T20:29:21.263Z,67.54
2022-10-23T20:31:48.401Z,68.36
2022-10-23T20:34:14.967Z,67.86
2022-10-23T20:36:47.003Z,68.40
2022-10-23T20:39:15.987Z,67.97
2022-10-23T20:41:46.650Z,67.01
2022-10-23T20:46:49.299Z,67.98
2022-10-23T20:49:18.583Z,68.37
2022-10-23T20:51:45.876Z,68.31
2022-10-23T20:54:12.402Z,68.24
2022-10-23T20:56:39.782Z,68.02
2022-10-23T20:59:08.353Z,67.97
2022-10-23T21:01:35.230Z,68.04
2022-10-23T21:04:03.855Z,68.71
2022-10-23T21:06:45.755Z,68.97
2022-10-23T21:09:18.574Z,69.19
2022-10-23T21:11:46.417Z,69.16
2022-10-23T21:14:13.013Z,68.66
2022-10-23T21:16:41.196Z,69.16
2022-10-23T21:19:11.726Z,69.32
2022-10-23T21:21:39.493Z,69.17
2022-10-23T21:24:08.335Z,68.76
2022-10-23T21:26:35.275Z,70.21
2022-10-23T21:29:17.358Z,70.38
2022-10-23T21:31:45.157Z,70.08
2022-10-23T21:34:13.620Z,70.66
2022-10-23T21:36:54.120Z,70.17
2022-10-23T21:39:27.238Z,71.18
2022-10-23T21:41:53.723Z,71.22
2022-10-23T21:44:20.793Z,71.67
2022-10-23T21:46:47.486Z,71.53
2022-10-23T21:49:15.412Z,71.14
2022-10-23T21:51:42.201Z,71.91
2022-10-23T21:54:12.300Z,71.87
2022-10-23T21:56:42.822Z,71.31
2022-10-23T21:59:12.222Z,71.26
2022-10-23T22:01:40.068Z,71.73
2022-10-23T22:04:06.732Z,71.71
2022-10-23T22:06:34.778Z,71.74
2022-10-23T22:09:01.830Z,71.12
2022-10-23T22:11:28.816Z,71.26
2022-10-23T22:13:55.551Z,71.32
2022-10-23T22:16:24.065Z,71.41
2022-10-23T22:18:53.823Z,70.37
2022-10-23T22:21:22.405Z,70.72
2022-10-23T22:23:50.770Z,71.20
2022-10-23T22:26:24.981Z,70.93
2022-10-23T22:28:53.049Z,71.02
2022-10-23T22:31:22.297Z,70.74
2022-10-23T22:33:49.228Z,70.28
2022-10-23T22:36:16.293Z,70.79
2022-10-23T22:38:43.260Z,70.58
2022-10-23T22:41:11.295Z,69.87
2022-10-23T22:43:38.263Z,70.41
2022-10-23T22:46:06.889Z,70.30
2022-10-23T22:48:33.715Z,69.69
2022-10-23T22:51:00.246Z,69.83
2022-10-23T22:53:28.169Z,69.61
2022-10-23T22:55:57.064Z,70.51
2022-10-23T22:58:26.295Z,69.66
2022-10-23T23:01:01.197Z,69.89
2022-10-23T23:03:28.077Z,69.32
2022-10-23T23:05:54.662Z,68.79
2022-10-23T23:08:21.207Z,69.11
2022-10-23T23:10:52.104Z,69.42
2022-10-23T23:13:20.231Z,69.41
2022-10-23T23:15:48.226Z,69.52
2022-10-23T23:18:14.855Z,69.53
2022-10-23T23:20:41.423Z,69.95
2022-10-23T23:23:08.663Z,69.18
2022-10-23T23:25:35.200Z,69.77
2022-10-23T23:28:01.736Z,68.83
2022-10-23T23:30:28.401Z,68.98
2022-10-23T23:32:56.819Z,69.14
2022-10-23T23:35:23.322Z,69.43
2022-10-23T23:37:50.199Z,68.82
2022-10-23T23:40:17.262Z,68.75
2022-10-23T23:42:43.938Z,68.89
2022-10-23T23:45:14.933Z,68.33
2022-10-23T23:47:42.459Z,68.73
2022-10-23T23:50:11.743Z,68.38
2022-10-23T23:52:38.345Z,68.65
2022-10-23T23:55:05.765Z,68.55
2022-10-23T23:57:32.599Z,68.14
2022-10-23T23:59:59.563Z,67.75
